Terminal Aerodrome Forecast
Issued by NWS

Home | Current Version | Previous Version | Graphics & Text | Print | Product List | Glossary Off
Versions: 1 2 3 4 5 6 7 8 9 10 11 12 13 14 15 16 17 18 19 20 21 22 23 24 25 26 27 28 29 30 31 32 33 34 35 36 37 38 39 40 41 42 43 44 45 46 47 48

000
FTUS43 KDDC 270520
TAFHYS
TAF
KHYS 270520Z 2706/2806 34006KT P6SM OVC008
     FM270800 35006KT P6SM OVC003
     FM271200 35005KT 2SM BR BKN003
     FM271600 36005KT 6SM BR SCT015
     FM271700 01004KT P6SM SCT050
     FM272100 08004KT P6SM FEW200
      AMD NOT SKED=

USA.gov is the U.S. government's official web portal to all federal, state and local government web resources and services.